createdAt,value
2022-08-05T00:02:33.797Z,101051.38
2022-08-05T00:06:06.633Z,101042.66
2022-08-05T00:09:01.472Z,101047.22
2022-08-05T00:12:04.399Z,101057.38
2022-08-05T00:15:54.141Z,101052.72
2022-08-05T00:18:32.079Z,101053.34
2022-08-05T00:21:35.871Z,101057.25
2022-08-05T00:24:42.582Z,101047.84
2022-08-05T00:27:45.370Z,101053.44
2022-08-05T00:30:52.128Z,101046.88
2022-08-05T00:34:54.486Z,101042.44
2022-08-05T00:37:18.918Z,101046.50
2022-08-05T00:40:29.252Z,101042.19
2022-08-05T00:43:47.414Z,101038.78
2022-08-05T00:46:54.153Z,101043.31
2022-08-05T00:50:05.153Z,101051.75
2022-08-05T00:53:16.040Z,101060.34
2022-08-05T00:56:32.064Z,101078.72
2022-08-05T00:59:44.237Z,101089.50
2022-08-05T01:02:47.358Z,101100.13
2022-08-05T01:05:54.749Z,101098.31
2022-08-05T01:08:57.612Z,101094.16
2022-08-05T01:12:18.052Z,101089.69
2022-08-05T01:15:35.676Z,101082.75
2022-08-05T01:18:43.377Z,101088.50
2022-08-05T01:22:23.977Z,101071.88
2022-08-05T01:25:54.490Z,101074.22
2022-08-05T01:29:05.008Z,101081.66
2022-08-05T01:32:18.435Z,101081.41
2022-08-05T01:35:50.757Z,101092.59
2022-08-05T01:38:51.333Z,101102.94
2022-08-05T01:41:55.285Z,101088.38
2022-08-05T01:45:03.213Z,101074.59
2022-08-05T01:48:10.228Z,101043.09
2022-08-05T01:51:15.622Z,101031.66
2022-08-05T01:54:25.624Z,101025.44
2022-08-05T01:58:29.791Z,101014.88
2022-08-05T02:01:00.149Z,100998.84
2022-08-05T02:04:04.393Z,100979.44
2022-08-05T02:07:07.246Z,100966.63
2022-08-05T02:10:17.257Z,100972.66
2022-08-05T02:13:27.745Z,100984.53
2022-08-05T02:16:46.737Z,100970.16
2022-08-05T02:20:01.500Z,100957.09
2022-08-05T02:23:10.022Z,100950.75
2022-08-05T02:26:20.109Z,100944.41
2022-08-05T02:29:59.496Z,100970.31
2022-08-05T02:32:55.227Z,100969.22
2022-08-05T02:36:01.469Z,100972.03
2022-08-05T02:39:08.761Z,100983.75
2022-08-05T02:42:12.400Z,100984.03
2022-08-05T02:45:52.294Z,101039.88
2022-08-05T02:48:58.464Z,101094.38
2022-08-05T02:52:04.730Z,101072.00
2022-08-05T02:55:10.957Z,101042.16
2022-08-05T02:58:16.854Z,101041.69
2022-08-05T03:01:27.023Z,101016.44
2022-08-05T03:04:33.718Z,101013.69
2022-08-05T03:08:00.486Z,100992.09
2022-08-05T03:11:41.190Z,100968.28
2022-08-05T03:14:22.999Z,100946.16
2022-08-05T03:17:25.930Z,100955.00
2022-08-05T03:20:31.101Z,100963.53
2022-08-05T03:23:34.812Z,100961.59
2022-08-05T03:26:37.915Z,100958.91
2022-08-05T03:29:45.596Z,100972.28
2022-08-05T03:33:05.797Z,100963.75
2022-08-05T03:36:12.119Z,100977.06
2022-08-05T03:39:26.755Z,100972.13
2022-08-05T03:42:32.486Z,100961.88
2022-08-05T03:45:58.037Z,100980.81
2022-08-05T03:48:59.148Z,101000.03
2022-08-05T03:52:39.070Z,100992.44
2022-08-05T03:56:05.556Z,101003.81
2022-08-05T03:59:03.170Z,101006.00
2022-08-05T04:02:13.397Z,101007.94
2022-08-05T04:05:20.859Z,100999.47
2022-08-05T04:08:36.765Z,100995.81
2022-08-05T04:11:50.757Z,101000.34
2022-08-05T04:14:57.610Z,101012.59
2022-08-05T04:18:02.883Z,100999.94
2022-08-05T04:21:06.699Z,101022.56
2022-08-05T04:24:19.195Z,101017.66
2022-08-05T04:27:33.052Z,101021.03
2022-08-05T04:30:44.569Z,101021.84
2022-08-05T04:34:17.483Z,101031.25
2022-08-05T04:37:10.273Z,101028.41
2022-08-05T04:40:14.985Z,101018.22
2022-08-05T04:43:22.354Z,101040.59
2022-08-05T04:46:27.774Z,101029.63
2022-08-05T04:49:39.105Z,101025.44
2022-08-05T04:52:53.789Z,101021.66
2022-08-05T04:56:14.403Z,101038.09
2022-08-05T04:59:21.655Z,101074.16
2022-08-05T05:02:43.266Z,101077.81
2022-08-05T05:06:39.941Z,101082.75
2022-08-05T05:09:09.847Z,101085.00
2022-08-05T05:12:18.089Z,101106.38
2022-08-05T05:15:57.003Z,101111.75
2022-08-05T05:19:08.996Z,101108.06
2022-08-05T05:22:24.396Z,101110.22
2022-08-05T05:25:32.647Z,101113.59
2022-08-05T05:28:45.012Z,101121.75
2022-08-05T05:31:47.940Z,101109.84
2022-08-05T05:34:52.319Z,101110.88
2022-08-05T05:38:00.068Z,101116.66
2022-08-05T05:41:04.014Z,101109.22
2022-08-05T05:44:36.033Z,101113.63
2022-08-05T05:48:07.197Z,101107.72
2022-08-05T05:50:58.358Z,101115.66
2022-08-05T05:54:00.938Z,101100.09
2022-08-05T05:57:03.550Z,101089.78
2022-08-05T06:00:19.982Z,101089.56
2022-08-05T06:03:28.335Z,101105.25
2022-08-05T06:06:47.774Z,101117.94
2022-08-05T06:10:01.705Z,101114.72
2022-08-05T06:13:07.227Z,101113.00
2022-08-05T06:16:30.123Z,101114.41
2022-08-05T06:19:35.671Z,101113.88
2022-08-05T06:22:40.559Z,101107.06
2022-08-05T06:26:12.281Z,101104.16
2022-08-05T06:29:45.440Z,101096.50
2022-08-05T06:32:31.734Z,101108.22
2022-08-05T06:36:08.008Z,101101.97
2022-08-05T06:38:56.986Z,101090.97
2022-08-05T06:42:01.308Z,101086.97
2022-08-05T06:45:08.492Z,101097.72
2022-08-05T06:48:53.799Z,101090.38
2022-08-05T06:51:35.622Z,101092.06
2022-08-05T06:54:43.338Z,101097.34
2022-08-05T06:58:03.259Z,101101.00
2022-08-05T07:01:13.889Z,101103.19
2022-08-05T07:04:24.836Z,101099.63
2022-08-05T07:07:43.051Z,101115.66
2022-08-05T07:10:53.496Z,101121.66
2022-08-05T07:14:15.783Z,101133.97
2022-08-05T07:18:07.459Z,101129.63
2022-08-05T07:20:46.873Z,101135.50
2022-08-05T07:23:52.180Z,101136.47
2022-08-05T07:26:55.125Z,101136.22
2022-08-05T07:30:23.851Z,101133.97
2022-08-05T07:33:21.458Z,101126.19
2022-08-05T07:36:41.387Z,101124.94
2022-08-05T07:40:04.088Z,101121.72
2022-08-05T07:43:20.336Z,101118.94
2022-08-05T07:46:25.086Z,101115.47
2022-08-05T07:49:28.706Z,101108.84
2022-08-05T07:52:32.690Z,101121.44
2022-08-05T07:56:04.835Z,101122.00
2022-08-05T07:58:59.203Z,101122.41
2022-08-05T08:02:03.230Z,101119.94
2022-08-05T08:05:06.932Z,101116.69
2022-08-05T08:08:12.188Z,101121.78
2022-08-05T08:11:16.050Z,101134.03
2022-08-05T08:14:19.155Z,101151.00
2022-08-05T08:17:22.086Z,101145.66
2022-08-05T08:21:00.567Z,101141.53
2022-08-05T08:24:03.940Z,101149.94
2022-08-05T08:27:07.995Z,101135.50
2022-08-05T08:30:28.520Z,101147.72
2022-08-05T08:33:36.014Z,101142.78
2022-08-05T08:36:46.360Z,101151.56
2022-08-05T08:39:56.638Z,101163.38
2022-08-05T08:45:19.963Z,101159.47
2022-08-05T08:46:24.978Z,101161.59
2022-08-05T08:50:05.964Z,101170.16
2022-08-05T08:52:55.867Z,101165.63
2022-08-05T08:56:02.976Z,101174.66
2022-08-05T08:59:19.267Z,101172.47
2022-08-05T09:02:26.654Z,101164.66
2022-08-05T09:05:38.297Z,101183.31
2022-08-05T09:08:41.731Z,101187.97
2022-08-05T09:11:50.910Z,101197.25
2022-08-05T09:14:59.573Z,101187.13
2022-08-05T09:18:09.326Z,101178.00
2022-08-05T09:21:21.202Z,101177.25
2022-08-05T09:24:34.643Z,101190.09
2022-08-05T09:28:05.175Z,101196.56
2022-08-05T09:31:22.481Z,101190.16
2022-08-05T09:34:47.362Z,101174.91
2022-08-05T09:38:12.174Z,101179.38
2022-08-05T09:41:16.209Z,101192.09
2022-08-05T09:44:34.359Z,101181.28
2022-08-05T09:47:55.527Z,101177.25
2022-08-05T09:51:00.443Z,101179.94
2022-08-05T09:54:05.203Z,101178.16
2022-08-05T09:57:20.663Z,101173.59
2022-08-05T10:00:30.454Z,101181.16
2022-08-05T10:03:56.786Z,101188.78
2022-08-05T10:06:59.285Z,101169.34
2022-08-05T10:10:14.228Z,101176.50
2022-08-05T10:13:31.549Z,101170.31
2022-08-05T10:16:52.736Z,101190.88
2022-08-05T10:20:03.738Z,101188.34
2022-08-05T10:23:34.253Z,101192.44
2022-08-05T10:26:51.415Z,101202.47
2022-08-05T10:30:41.842Z,101201.81
2022-08-05T10:33:19.208Z,101207.72
2022-08-05T10:36:23.767Z,101206.91
2022-08-05T10:40:03.729Z,101207.22
2022-08-05T10:43:02.236Z,101200.63
2022-08-05T10:46:09.545Z,101204.19
2022-08-05T10:49:16.349Z,101211.22
2022-08-05T10:52:49.528Z,101216.91
2022-08-05T10:56:14.670Z,101227.91
2022-08-05T11:00:02.042Z,101232.41
2022-08-05T11:03:25.859Z,101230.13
2022-08-05T11:06:31.383Z,101222.09
2022-08-05T11:09:46.721Z,101229.84
2022-08-05T11:12:50.817Z,101233.47
2022-08-05T11:16:47.750Z,101252.56
2022-08-05T11:20:16.849Z,101258.91
2022-08-05T11:24:05.287Z,101279.91
2022-08-05T11:27:28.799Z,101266.88
2022-08-05T11:31:58.825Z,101264.75
2022-08-05T11:34:47.564Z,101277.44
2022-08-05T11:38:26.206Z,101291.47
2022-08-05T11:41:56.287Z,101291.34
2022-08-05T11:44:53.803Z,101309.94
2022-08-05T11:47:58.688Z,101307.25
2022-08-05T11:51:02.629Z,101320.72
2022-08-05T11:54:06.693Z,101319.63
2022-08-05T11:57:24.511Z,101308.09
2022-08-05T12:00:29.223Z,101297.44
2022-08-05T12:03:43.229Z,101290.66
2022-08-05T12:07:01.142Z,101312.94
2022-08-05T12:10:09.532Z,101348.22
2022-08-05T12:13:47.658Z,101346.00
2022-08-05T12:16:45.291Z,101333.72
2022-08-05T12:20:27.152Z,101331.69
2022-08-05T12:23:14.015Z,101335.72
2022-08-05T12:26:17.039Z,101343.06
2022-08-05T12:29:23.802Z,101349.41
2022-08-05T12:32:26.506Z,101338.66
2022-08-05T12:35:36.886Z,101333.22
2022-08-05T12:38:42.716Z,101338.16
2022-08-05T12:41:46.873Z,101335.25
2022-08-05T12:44:52.568Z,101339.44
2022-08-05T12:48:17.611Z,101348.47
2022-08-05T12:52:10.178Z,101353.69
2022-08-05T12:54:42.049Z,101356.44
2022-08-05T12:58:38.872Z,101359.25
2022-08-05T13:02:01.734Z,101348.69
2022-08-05T13:04:33.549Z,101344.38
2022-08-05T13:08:02.036Z,101337.47
2022-08-05T13:11:04.970Z,101339.50
2022-08-05T13:14:19.375Z,101351.72
2022-08-05T13:17:31.957Z,101359.91
2022-08-05T13:20:44.233Z,101375.34
2022-08-05T13:23:50.765Z,101361.34
2022-08-05T13:26:55.080Z,101361.00
2022-08-05T13:30:32.559Z,101353.97
2022-08-05T13:34:22.573Z,101362.91
2022-08-05T13:36:44.949Z,101365.53
2022-08-05T13:40:16.107Z,101361.38
2022-08-05T13:43:12.217Z,101372.25
2022-08-05T13:46:16.296Z,101354.84
2022-08-05T13:49:35.284Z,101361.00
2022-08-05T13:52:38.034Z,101368.84
2022-08-05T13:55:41.773Z,101359.34
2022-08-05T13:58:53.276Z,101366.47
2022-08-05T14:01:58.782Z,101359.34
2022-08-05T14:05:15.372Z,101367.22
2022-08-05T14:08:27.855Z,101363.44
2022-08-05T14:11:31.388Z,101356.41
2022-08-05T14:14:34.037Z,101353.09
2022-08-05T14:17:37.701Z,101352.50
2022-08-05T14:20:41.664Z,101357.25
2022-08-05T14:23:50.013Z,101362.41
2022-08-05T14:27:15.679Z,101356.69
2022-08-05T14:30:20.363Z,101351.91
2022-08-05T14:33:24.353Z,101353.88
2022-08-05T14:36:28.420Z,101353.97
2022-08-05T14:39:49.441Z,101359.81
2022-08-05T14:42:55.538Z,101353.25
2022-08-05T14:45:58.516Z,101357.66
2022-08-05T14:49:06.467Z,101367.59
2022-08-05T14:52:12.285Z,101357.25
2022-08-05T14:55:24.695Z,101359.34
2022-08-05T14:58:27.295Z,101361.66
2022-08-05T15:01:49.163Z,101365.81
2022-08-05T15:04:52.737Z,101371.63
2022-08-05T15:08:13.201Z,101378.81
2022-08-05T15:11:19.258Z,101388.81
2022-08-05T15:14:35.659Z,101385.31
2022-08-05T15:17:51.296Z,101387.03
2022-08-05T15:20:54.678Z,101401.06
2022-08-05T15:23:58.638Z,101404.56
2022-08-05T15:27:01.233Z,101394.16
2022-08-05T15:30:07.342Z,101389.72
2022-08-05T15:33:09.924Z,101381.78
2022-08-05T15:36:16.976Z,101373.16
2022-08-05T15:41:00.646Z,101370.97
2022-08-05T15:42:56.752Z,101370.63
2022-08-05T15:46:01.239Z,101375.66
2022-08-05T15:49:10.067Z,101378.25
2022-08-05T15:52:29.474Z,101381.69
2022-08-05T15:56:02.026Z,101388.25
2022-08-05T15:59:00.532Z,101396.41
2022-08-05T16:02:03.185Z,101389.28
2022-08-05T16:05:12.824Z,101438.75
2022-08-05T16:08:16.049Z,101444.94
2022-08-05T16:11:20.912Z,101443.72
2022-08-05T16:14:24.190Z,101445.66
2022-08-05T16:17:26.777Z,101434.03
2022-08-05T16:20:31.561Z,101448.88
2022-08-05T16:23:54.131Z,101444.59
2022-08-05T16:27:01.489Z,101456.66
2022-08-05T16:30:05.595Z,101457.19
2022-08-05T16:33:08.305Z,101455.16
2022-08-05T16:36:11.343Z,101456.97
2022-08-05T16:39:15.603Z,101455.47
2022-08-05T16:42:27.375Z,101458.59
2022-08-05T16:46:06.295Z,101460.75
2022-08-05T16:48:53.532Z,101458.72
2022-08-05T16:51:58.484Z,101457.91
2022-08-05T16:55:01.604Z,101462.16
2022-08-05T16:58:08.811Z,101474.66
2022-08-05T17:01:12.756Z,101472.72
2022-08-05T17:04:15.379Z,101472.56
2022-08-05T17:07:43.532Z,101470.97
2022-08-05T17:10:40.529Z,101480.22
2022-08-05T17:13:44.718Z,101474.75
2022-08-05T17:16:47.851Z,101473.31
2022-08-05T17:19:56.678Z,101480.88
2022-08-05T17:22:59.312Z,101483.06
2022-08-05T17:26:02.545Z,101490.16
2022-08-05T17:29:07.474Z,101497.44
2022-08-05T17:32:16.725Z,101495.94
2022-08-05T17:35:21.013Z,101490.69
2022-08-05T17:38:23.750Z,101510.91
2022-08-05T17:42:17.631Z,101511.19
2022-08-05T17:44:51.408Z,101516.88
2022-08-05T17:47:56.236Z,101528.69
2022-08-05T17:50:59.002Z,101524.53
2022-08-05T17:54:03.975Z,101532.34
2022-08-05T17:57:07.078Z,101531.00
2022-08-05T18:00:16.938Z,101550.59
2022-08-05T18:06:42.927Z,101561.31
2022-08-05T18:09:58.951Z,101557.88
2022-08-05T18:13:07.618Z,101564.72
2022-08-05T18:16:20.247Z,101570.22
2022-08-05T18:19:26.054Z,101577.66
2022-08-05T18:22:46.165Z,101578.22
2022-08-05T18:25:57.463Z,101591.72
2022-08-05T18:29:01.003Z,101590.41
2022-08-05T18:32:06.501Z,101595.47
2022-08-05T18:35:16.840Z,101608.72
2022-08-05T18:38:26.380Z,101610.16
2022-08-05T18:41:55.980Z,101611.41
2022-08-05T18:44:56.474Z,101597.53
2022-08-05T18:48:00.613Z,101611.38
2022-08-05T18:52:04.583Z,101613.50
2022-08-05T18:54:45.947Z,101614.00
2022-08-05T18:57:53.126Z,101627.69
2022-08-05T19:00:56.454Z,101636.16
2022-08-05T19:04:00.471Z,101628.38
2022-08-05T19:07:03.055Z,101636.34
2022-08-05T19:10:11.111Z,101635.38
2022-08-05T19:13:16.050Z,101648.44
2022-08-05T19:16:25.173Z,101654.00
2022-08-05T19:19:33.228Z,101663.38
2022-08-05T19:22:36.701Z,101663.25
2022-08-05T19:25:43.719Z,101660.75
2022-08-05T19:28:47.040Z,101675.38
2022-08-05T19:31:51.005Z,101676.66
2022-08-05T19:34:55.882Z,101689.50
2022-08-05T19:38:06.140Z,101696.31
2022-08-05T19:41:10.107Z,101704.16
2022-08-05T19:44:13.729Z,101713.69
2022-08-05T19:47:17.209Z,101708.97
2022-08-05T19:50:21.154Z,101717.44
2022-08-05T19:54:04.042Z,101727.03
2022-08-05T19:56:48.779Z,101726.84
2022-08-05T19:59:59.370Z,101721.03
2022-08-05T20:03:08.998Z,101719.59
2022-08-05T20:06:15.855Z,101736.00
2022-08-05T20:09:53.806Z,101731.16
2022-08-05T20:12:55.003Z,101741.13
2022-08-05T20:15:58.113Z,101743.66
2022-08-05T20:19:02.289Z,101739.97
2022-08-05T20:22:06.566Z,101747.66
2022-08-05T20:25:12.420Z,101747.19
2022-08-05T20:28:15.044Z,101747.91
2022-08-05T20:31:21.593Z,101753.41
2022-08-05T20:34:31.040Z,101759.13
2022-08-05T20:38:06.227Z,101769.59
2022-08-05T20:40:57.821Z,101767.88
2022-08-05T20:44:16.917Z,101770.47
2022-08-05T20:47:20.942Z,101772.75
2022-08-05T20:50:36.251Z,101770.13
2022-08-05T20:53:42.663Z,101775.31
2022-08-05T20:56:59.222Z,101778.44
2022-08-05T21:00:20.914Z,101783.19
2022-08-05T21:03:24.446Z,101781.94
2022-08-05T21:06:29.625Z,101792.03
2022-08-05T21:09:33.815Z,101801.44
2022-08-05T21:12:39.759Z,101797.84
2022-08-05T21:16:01.083Z,101806.78
2022-08-05T21:19:04.794Z,101808.13
2022-08-05T21:22:09.539Z,101808.03
2022-08-05T21:25:15.800Z,101810.59
2022-08-05T21:28:23.675Z,101823.34
2022-08-05T21:31:26.698Z,101818.75
2022-08-05T21:34:43.574Z,101820.72
2022-08-05T21:37:58.962Z,101816.94
2022-08-05T21:41:02.953Z,101820.03
2022-08-05T21:44:06.941Z,101813.72
2022-08-05T21:47:32.785Z,101819.28
2022-08-05T21:50:32.120Z,101820.16
2022-08-05T21:53:34.802Z,101823.34
2022-08-05T21:56:44.586Z,101820.38
2022-08-05T22:00:04.859Z,101824.53
2022-08-05T22:03:14.369Z,101832.06
2022-08-05T22:06:22.190Z,101824.81
2022-08-05T22:09:46.185Z,101826.16
2022-08-05T22:12:50.678Z,101824.41
2022-08-05T22:16:01.747Z,101829.31
2022-08-05T22:19:57.064Z,101838.00
2022-08-05T22:22:28.880Z,101838.38
2022-08-05T22:26:09.702Z,101838.59
2022-08-05T22:29:17.202Z,101841.84
2022-08-05T22:32:21.380Z,101845.63
2022-08-05T22:35:25.869Z,101848.59
2022-08-05T22:38:33.791Z,101855.69
2022-08-05T22:42:11.631Z,101849.31
2022-08-05T22:45:03.672Z,101858.34
2022-08-05T22:48:06.901Z,101848.75
2022-08-05T22:51:15.976Z,101850.91
2022-08-05T22:54:26.026Z,101855.44
2022-08-05T22:57:36.227Z,101856.69
2022-08-05T23:00:40.677Z,101864.78
2022-08-05T23:03:58.100Z,101859.53
2022-08-05T23:07:02.541Z,101865.66
2022-08-05T23:10:06.613Z,101867.69
2022-08-05T23:13:10.479Z,101862.97
2022-08-05T23:16:14.452Z,101871.00
2022-08-05T23:19:28.922Z,101872.28
2022-08-05T23:22:41.053Z,101873.16
2022-08-05T23:25:51.131Z,101876.19
2022-08-05T23:28:57.718Z,101877.41
2022-08-05T23:32:02.655Z,101878.28
2022-08-05T23:35:07.097Z,101885.53
2022-08-05T23:38:12.071Z,101886.47
2022-08-05T23:41:14.796Z,101884.97
2022-08-05T23:44:17.465Z,101892.53
2022-08-05T23:47:25.003Z,101890.31
2022-08-05T23:50:28.098Z,101902.63
2022-08-05T23:53:46.911Z,101902.41
2022-08-05T23:56:49.661Z,101908.56
